Accueil
METAR-TAF:

METAR-TAF

Aéroports :

Memmingen, Allemagne

latitude: 47-59-33N, longitude: 10-14-37E, altitude: 633 m

Observation

Le bulletin a été fait il y a 27 minutes, à 23:50 UTC
Vent 1 kt de direction variable
Température 10°C
Humidité 100%
Pression 1025 hPa
Visibilité: 5000 m

METAR: EDJA 112350Z AUTO VRB01KT 5000 R06///// NCD 10/10 Q1025

Heure: 02:17 (00:17 UTC)

Prévision

Le bulletin a été fait il y a 7 heures et 17 minutes, à 17:00 UTC
Prévision valable du 11 à 18 UTC au 12 à 03 UTC
Vent 5 kt de nord-est
Visibilité 10 km ou plus
Nuages épars à une hauteur de 4000 ft
Evoluant progressivement
du 11 à 18 UTC au 11 à 20 UTC
Vent 2 kt de direction variable
Probabilité 30% :
Temporairement
du 12 à 00 UTC au 12 à 03 UTC
Visibilité: 2000 m
bancs de brouillard

TAF: EDJA 111700Z 1118/1203 05005KT 9999 SCT040 BECMG 1118/1120 VRB02KT PROB30 TEMPO 1200/1203 2000 BCFG

Observations et prévisions météorologiques de plus de 4000 aéroports (messages METAR et TAF).

Les stations disponibles sont représentées par des disques jaunes et rouges sur la carte.

Passer la souris dessus pour voir le nom de la station.

Cliquer dessus pour voir les observations et prévisions météorologiques.

Pour changer de carte: cliquez sur les boutons verts avec une croix noire pour zoomer, sur le bouton vert avec un tiret pour effectuer un zoom arrière, ou sur les flèches vertes pour les cartes adjacentes.


METAR-TAF: